sensor_id;sensor_type;location;lat;lon;timestamp;P1;durP1;ratioP1;P2;durP2;ratioP2
17372;SDS011;8803;48.116;11.590;2023-06-14T00:00:48;4.20;;;3.80;;
17372;SDS011;8803;48.116;11.590;2023-06-14T00:02:53;4.00;;;3.60;;
17372;SDS011;8803;48.116;11.590;2023-06-14T00:04:58;4.57;;;4.13;;
17372;SDS011;8803;48.116;11.590;2023-06-14T00:07:10;4.87;;;4.37;;
17372;SDS011;8803;48.116;11.590;2023-06-14T00:09:17;7.83;;;4.73;;
17372;SDS011;8803;48.116;11.590;2023-06-14T00:11:21;4.30;;;3.90;;
17372;SDS011;8803;48.116;11.590;2023-06-14T00:13:24;5.77;;;3.93;;
17372;SDS011;8803;48.116;11.590;2023-06-14T00:15:29;5.13;;;4.63;;
17372;SDS011;8803;48.116;11.590;2023-06-14T00:17:41;5.73;;;4.37;;
17372;SDS011;8803;48.116;11.590;2023-06-14T00:19:47;4.40;;;4.00;;
17372;SDS011;8803;48.116;11.590;2023-06-14T00:21:51;4.57;;;4.17;;
17372;SDS011;8803;48.116;11.590;2023-06-14T00:23:55;4.30;;;3.90;;
17372;SDS011;8803;48.116;11.590;2023-06-14T00:25:59;4.87;;;4.37;;
17372;SDS011;8803;48.116;11.590;2023-06-14T00:28:12;4.90;;;4.30;;
17372;SDS011;8803;48.116;11.590;2023-06-14T00:30:16;5.40;;;4.10;;
17372;SDS011;8803;48.116;11.590;2023-06-14T00:32:20;4.87;;;4.33;;
17372;SDS011;8803;48.116;11.590;2023-06-14T00:34:26;5.27;;;4.17;;
17372;SDS011;8803;48.116;11.590;2023-06-14T00:36:30;5.10;;;4.50;;
17372;SDS011;8803;48.116;11.590;2023-06-14T00:38:43;5.07;;;4.57;;
17372;SDS011;8803;48.116;11.590;2023-06-14T00:40:47;6.60;;;4.10;;
17372;SDS011;8803;48.116;11.590;2023-06-14T00:42:51;4.67;;;4.27;;
17372;SDS011;8803;48.116;11.590;2023-06-14T00:45:04;4.60;;;4.20;;
17372;SDS011;8803;48.116;11.590;2023-06-14T00:47:09;5.27;;;4.50;;
17372;SDS011;8803;48.116;11.590;2023-06-14T00:49:21;5.77;;;4.70;;
17372;SDS011;8803;48.116;11.590;2023-06-14T00:51:26;5.07;;;4.57;;
17372;SDS011;8803;48.116;11.590;2023-06-14T00:53:30;4.70;;;4.30;;
17372;SDS011;8803;48.116;11.590;2023-06-14T00:55:36;4.83;;;4.33;;
17372;SDS011;8803;48.116;11.590;2023-06-14T00:57:49;6.50;;;4.40;;
17372;SDS011;8803;48.116;11.590;2023-06-14T00:59:53;4.80;;;4.30;;
17372;SDS011;8803;48.116;11.590;2023-06-14T01:01:57;4.73;;;4.23;;
17372;SDS011;8803;48.116;11.590;2023-06-14T01:04:10;4.30;;;3.90;;
17372;SDS011;8803;48.116;11.590;2023-06-14T01:08:28;8.13;;;4.63;;
17372;SDS011;8803;48.116;11.590;2023-06-14T01:10:36;4.90;;;3.57;;
17372;SDS011;8803;48.116;11.590;2023-06-14T01:12:44;4.70;;;4.10;;
17372;SDS011;8803;48.116;11.590;2023-06-14T01:14:52;4.97;;;4.20;;
17372;SDS011;8803;48.116;11.590;2023-06-14T01:17:06;4.73;;;4.33;;
17372;SDS011;8803;48.116;11.590;2023-06-14T01:19:13;4.20;;;3.80;;
17372;SDS011;8803;48.116;11.590;2023-06-14T01:21:21;4.60;;;4.10;;
17372;SDS011;8803;48.116;11.590;2023-06-14T01:25:37;4.50;;;4.10;;
17372;SDS011;8803;48.116;11.590;2023-06-14T01:27:43;4.70;;;4.20;;
17372;SDS011;8803;48.116;11.590;2023-06-14T01:29:56;4.23;;;3.80;;
17372;SDS011;8803;48.116;11.590;2023-06-14T01:32:02;4.30;;;3.80;;
17372;SDS011;8803;48.116;11.590;2023-06-14T01:34:08;4.20;;;3.80;;
17372;SDS011;8803;48.116;11.590;2023-06-14T01:36:13;4.23;;;3.83;;
17372;SDS011;8803;48.116;11.590;2023-06-14T01:38:26;4.43;;;4.00;;
17372;SDS011;8803;48.116;11.590;2023-06-14T01:40:32;4.47;;;4.07;;
17372;SDS011;8803;48.116;11.590;2023-06-14T01:42:38;4.30;;;3.90;;
17372;SDS011;8803;48.116;11.590;2023-06-14T01:44:43;5.27;;;3.80;;
17372;SDS011;8803;48.116;11.590;2023-06-14T01:49:00;4.13;;;3.70;;
17372;SDS011;8803;48.116;11.590;2023-06-14T01:51:06;4.33;;;3.93;;
17372;SDS011;8803;48.116;11.590;2023-06-14T01:53:10;4.77;;;4.27;;
17372;SDS011;8803;48.116;11.590;2023-06-14T01:55:15;4.03;;;3.53;;
17372;SDS011;8803;48.116;11.590;2023-06-14T01:57:28;4.33;;;3.90;;
17372;SDS011;8803;48.116;11.590;2023-06-14T01:59:32;4.70;;;4.23;;
17372;SDS011;8803;48.116;11.590;2023-06-14T02:01:44;4.30;;;3.90;;
17372;SDS011;8803;48.116;11.590;2023-06-14T02:03:48;4.60;;;3.90;;
17372;SDS011;8803;48.116;11.590;2023-06-14T02:05:52;4.47;;;3.63;;
17372;SDS011;8803;48.116;11.590;2023-06-14T02:08:05;4.53;;;4.00;;
17372;SDS011;8803;48.116;11.590;2023-06-14T02:10:09;4.40;;;4.00;;
17372;SDS011;8803;48.116;11.590;2023-06-14T02:12:13;4.47;;;4.07;;
17372;SDS011;8803;48.116;11.590;2023-06-14T02:14:17;8.50;;;4.40;;
17372;SDS011;8803;48.116;11.590;2023-06-14T02:16:30;5.00;;;4.50;;
17372;SDS011;8803;48.116;11.590;2023-06-14T02:18:35;4.37;;;3.97;;
17372;SDS011;8803;48.116;11.590;2023-06-14T02:20:48;4.87;;;4.37;;
17372;SDS011;8803;48.116;11.590;2023-06-14T02:22:52;5.10;;;4.13;;
17372;SDS011;8803;48.116;11.590;2023-06-14T02:24:57;4.03;;;3.63;;
17372;SDS011;8803;48.116;11.590;2023-06-14T02:29:13;5.40;;;3.93;;
17372;SDS011;8803;48.116;11.590;2023-06-14T02:31:17;4.17;;;3.70;;
17372;SDS011;8803;48.116;11.590;2023-06-14T02:33:21;4.33;;;3.93;;
17372;SDS011;8803;48.116;11.590;2023-06-14T02:35:34;4.07;;;3.67;;
17372;SDS011;8803;48.116;11.590;2023-06-14T02:37:38;5.07;;;4.00;;
17372;SDS011;8803;48.116;11.590;2023-06-14T02:39:51;4.20;;;3.90;;
17372;SDS011;8803;48.116;11.590;2023-06-14T02:41:55;4.30;;;3.90;;
17372;SDS011;8803;48.116;11.590;2023-06-14T02:43:59;5.80;;;3.90;;
17372;SDS011;8803;48.116;11.590;2023-06-14T02:46:03;4.63;;;4.10;;
17372;SDS011;8803;48.116;11.590;2023-06-14T02:48:16;4.60;;;4.13;;
17372;SDS011;8803;48.116;11.590;2023-06-14T02:50:19;4.57;;;3.80;;
17372;SDS011;8803;48.116;11.590;2023-06-14T02:52:25;4.43;;;3.97;;
17372;SDS011;8803;48.116;11.590;2023-06-14T02:54:37;5.20;;;4.10;;
17372;SDS011;8803;48.116;11.590;2023-06-14T02:56:42;4.63;;;4.20;;
17372;SDS011;8803;48.116;11.590;2023-06-14T02:58:55;4.77;;;3.83;;
17372;SDS011;8803;48.116;11.590;2023-06-14T03:01:01;4.30;;;3.90;;
17372;SDS011;8803;48.116;11.590;2023-06-14T03:03:06;5.70;;;4.30;;
17372;SDS011;8803;48.116;11.590;2023-06-14T03:07:24;4.53;;;3.70;;
17372;SDS011;8803;48.116;11.590;2023-06-14T03:09:28;6.00;;;4.27;;
17372;SDS011;8803;48.116;11.590;2023-06-14T03:11:32;7.00;;;4.60;;
17372;SDS011;8803;48.116;11.590;2023-06-14T03:13:45;3.90;;;3.60;;
17372;SDS011;8803;48.116;11.590;2023-06-14T03:15:49;4.83;;;4.33;;
17372;SDS011;8803;48.116;11.590;2023-06-14T03:18:02;5.53;;;4.00;;
17372;SDS011;8803;48.116;11.590;2023-06-14T03:20:07;5.10;;;4.07;;
17372;SDS011;8803;48.116;11.590;2023-06-14T03:22:11;4.77;;;4.33;;
17372;SDS011;8803;48.116;11.590;2023-06-14T03:24:26;4.10;;;3.70;;
17372;SDS011;8803;48.116;11.590;2023-06-14T03:26:33;4.63;;;4.00;;
17372;SDS011;8803;48.116;11.590;2023-06-14T03:28:46;4.40;;;4.00;;
17372;SDS011;8803;48.116;11.590;2023-06-14T03:30:52;4.67;;;4.17;;
17372;SDS011;8803;48.116;11.590;2023-06-14T03:32:57;5.73;;;4.20;;
17372;SDS011;8803;48.116;11.590;2023-06-14T03:35:09;5.50;;;5.00;;
17372;SDS011;8803;48.116;11.590;2023-06-14T03:37:15;6.33;;;4.70;;
17372;SDS011;8803;48.116;11.590;2023-06-14T03:39:28;6.23;;;4.63;;
17372;SDS011;8803;48.116;11.590;2023-06-14T03:41:33;6.37;;;4.30;;
17372;SDS011;8803;48.116;11.590;2023-06-14T03:43:36;5.47;;;4.47;;
17372;SDS011;8803;48.116;11.590;2023-06-14T03:45:40;4.50;;;4.07;;
17372;SDS011;8803;48.116;11.590;2023-06-14T03:47:53;5.33;;;4.27;;
17372;SDS011;8803;48.116;11.590;2023-06-14T03:49:57;5.67;;;4.53;;
17372;SDS011;8803;48.116;11.590;2023-06-14T03:52:02;4.63;;;4.23;;
17372;SDS011;8803;48.116;11.590;2023-06-14T03:54:06;5.03;;;4.53;;
17372;SDS011;8803;48.116;11.590;2023-06-14T03:56:10;4.83;;;4.30;;
17372;SDS011;8803;48.116;11.590;2023-06-14T03:58:23;5.73;;;4.37;;
17372;SDS011;8803;48.116;11.590;2023-06-14T04:00:27;5.07;;;4.20;;
17372;SDS011;8803;48.116;11.590;2023-06-14T04:02:40;4.73;;;4.10;;
17372;SDS011;8803;48.116;11.590;2023-06-14T04:04:45;4.50;;;4.10;;
17372;SDS011;8803;48.116;11.590;2023-06-14T04:06:58;5.00;;;4.50;;
17372;SDS011;8803;48.116;11.590;2023-06-14T04:09:04;6.33;;;4.27;;
17372;SDS011;8803;48.116;11.590;2023-06-14T04:11:17;4.57;;;4.17;;
17372;SDS011;8803;48.116;11.590;2023-06-14T04:13:21;5.80;;;4.27;;
17372;SDS011;8803;48.116;11.590;2023-06-14T04:15:27;5.57;;;4.03;;
17372;SDS011;8803;48.116;11.590;2023-06-14T04:17:49;5.73;;;4.77;;
17372;SDS011;8803;48.116;11.590;2023-06-14T04:19:55;5.07;;;4.60;;
17372;SDS011;8803;48.116;11.590;2023-06-14T04:22:01;4.50;;;4.07;;
17372;SDS011;8803;48.116;11.590;2023-06-14T04:24:05;4.97;;;4.47;;
17372;SDS011;8803;48.116;11.590;2023-06-14T04:26:10;6.23;;;4.70;;
17372;SDS011;8803;48.116;11.590;2023-06-14T04:28:23;5.33;;;4.43;;
17372;SDS011;8803;48.116;11.590;2023-06-14T04:30:31;4.67;;;4.17;;
17372;SDS011;8803;48.116;11.590;2023-06-14T04:32:37;5.17;;;4.17;;
17372;SDS011;8803;48.116;11.590;2023-06-14T04:34:41;5.13;;;4.40;;
17372;SDS011;8803;48.116;11.590;2023-06-14T04:36:53;6.17;;;4.30;;
17372;SDS011;8803;48.116;11.590;2023-06-14T04:38:58;5.23;;;4.10;;
17372;SDS011;8803;48.116;11.590;2023-06-14T04:41:11;4.10;;;3.70;;
17372;SDS011;8803;48.116;11.590;2023-06-14T04:43:17;5.57;;;4.30;;
17372;SDS011;8803;48.116;11.590;2023-06-14T04:45:22;5.43;;;4.17;;
17372;SDS011;8803;48.116;11.590;2023-06-14T04:47:35;4.67;;;4.27;;
17372;SDS011;8803;48.116;11.590;2023-06-14T04:49:39;5.80;;;4.03;;
17372;SDS011;8803;48.116;11.590;2023-06-14T04:51:45;4.47;;;4.00;;
17372;SDS011;8803;48.116;11.590;2023-06-14T04:53:50;4.43;;;4.03;;
17372;SDS011;8803;48.116;11.590;2023-06-14T04:56:03;4.17;;;3.77;;
17372;SDS011;8803;48.116;11.590;2023-06-14T04:58:08;4.17;;;3.77;;
17372;SDS011;8803;48.116;11.590;2023-06-14T05:00:21;4.20;;;3.80;;
17372;SDS011;8803;48.116;11.590;2023-06-14T05:02:25;5.70;;;3.53;;
17372;SDS011;8803;48.116;11.590;2023-06-14T05:04:31;4.90;;;4.33;;
17372;SDS011;8803;48.116;11.590;2023-06-14T05:06:35;5.10;;;3.60;;
17372;SDS011;8803;48.116;11.590;2023-06-14T05:08:48;6.97;;;4.03;;
17372;SDS011;8803;48.116;11.590;2023-06-14T05:10:53;5.17;;;3.93;;
17372;SDS011;8803;48.116;11.590;2023-06-14T05:12:59;4.97;;;3.90;;
17372;SDS011;8803;48.116;11.590;2023-06-14T05:15:21;5.67;;;4.00;;
17372;SDS011;8803;48.116;11.590;2023-06-14T05:17:26;4.22;;;3.90;;
17372;SDS011;8803;48.116;11.590;2023-06-14T05:19:39;5.37;;;3.90;;
17372;SDS011;8803;48.116;11.590;2023-06-14T05:21:43;4.90;;;3.90;;
17372;SDS011;8803;48.116;11.590;2023-06-14T05:23:56;8.58;;;3.77;;
17372;SDS011;8803;48.116;11.590;2023-06-14T05:26:00;4.03;;;3.70;;
17372;SDS011;8803;48.116;11.590;2023-06-14T05:28:13;4.97;;;4.15;;
17372;SDS011;8803;48.116;11.590;2023-06-14T05:30:17;4.28;;;3.58;;
17372;SDS011;8803;48.116;11.590;2023-06-14T05:32:21;4.85;;;3.65;;
17372;SDS011;8803;48.116;11.590;2023-06-14T05:34:25;5.90;;;4.20;;
17372;SDS011;8803;48.116;11.590;2023-06-14T05:36:47;4.67;;;3.90;;
17372;SDS011;8803;48.116;11.590;2023-06-14T05:41:05;4.62;;;4.00;;
17372;SDS011;8803;48.116;11.590;2023-06-14T05:43:09;5.92;;;4.00;;
17372;SDS011;8803;48.116;11.590;2023-06-14T05:47:24;4.65;;;4.20;;
17372;SDS011;8803;48.116;11.590;2023-06-14T05:49:28;6.85;;;3.85;;
17372;SDS011;8803;48.116;11.590;2023-06-14T05:51:32;3.77;;;3.47;;
17372;SDS011;8803;48.116;11.590;2023-06-14T05:53:37;4.05;;;3.30;;
17372;SDS011;8803;48.116;11.590;2023-06-14T05:55:41;4.50;;;3.52;;
17372;SDS011;8803;48.116;11.590;2023-06-14T05:57:53;4.25;;;3.37;;
17372;SDS011;8803;48.116;11.590;2023-06-14T06:00:07;4.28;;;3.05;;
17372;SDS011;8803;48.116;11.590;2023-06-14T06:02:15;3.72;;;3.20;;
17372;SDS011;8803;48.116;11.590;2023-06-14T06:04:19;5.05;;;3.98;;
17372;SDS011;8803;48.116;11.590;2023-06-14T06:06:23;5.55;;;3.50;;
17372;SDS011;8803;48.116;11.590;2023-06-14T06:08:39;4.45;;;3.70;;
17372;SDS011;8803;48.116;11.590;2023-06-14T06:10:51;4.58;;;3.40;;
17372;SDS011;8803;48.116;11.590;2023-06-14T06:13:03;3.95;;;3.50;;
17372;SDS011;8803;48.116;11.590;2023-06-14T06:15:08;3.72;;;3.42;;
17372;SDS011;8803;48.116;11.590;2023-06-14T06:17:23;3.65;;;3.37;;
17372;SDS011;8803;48.116;11.590;2023-06-14T06:19:28;3.70;;;3.15;;
17372;SDS011;8803;48.116;11.590;2023-06-14T06:21:32;5.87;;;3.35;;
17372;SDS011;8803;48.116;11.590;2023-06-14T06:23:37;3.87;;;3.55;;
17372;SDS011;8803;48.116;11.590;2023-06-14T06:25:40;4.35;;;3.87;;
17372;SDS011;8803;48.116;11.590;2023-06-14T06:27:55;4.17;;;3.27;;
17372;SDS011;8803;48.116;11.590;2023-06-14T06:29:59;4.12;;;3.72;;
17372;SDS011;8803;48.116;11.590;2023-06-14T06:32:08;4.90;;;3.05;;
17372;SDS011;8803;48.116;11.590;2023-06-14T06:34:12;3.58;;;3.25;;
17372;SDS011;8803;48.116;11.590;2023-06-14T06:36:17;4.65;;;3.60;;
17372;SDS011;8803;48.116;11.590;2023-06-14T06:40:43;7.12;;;3.42;;
17372;SDS011;8803;48.116;11.590;2023-06-14T06:42:47;4.50;;;3.50;;
17372;SDS011;8803;48.116;11.590;2023-06-14T06:44:52;5.55;;;3.37;;
17372;SDS011;8803;48.116;11.590;2023-06-14T06:47:06;4.92;;;3.83;;
17372;SDS011;8803;48.116;11.590;2023-06-14T06:49:12;4.10;;;3.52;;
17372;SDS011;8803;48.116;11.590;2023-06-14T06:51:16;4.62;;;3.30;;
17372;SDS011;8803;48.116;11.590;2023-06-14T06:53:20;3.60;;;3.30;;
17372;SDS011;8803;48.116;11.590;2023-06-14T06:55:25;4.62;;;3.58;;
17372;SDS011;8803;48.116;11.590;2023-06-14T06:57:37;4.83;;;3.50;;
17372;SDS011;8803;48.116;11.590;2023-06-14T06:59:42;8.20;;;4.10;;
17372;SDS011;8803;48.116;11.590;2023-06-14T07:01:59;9.58;;;3.70;;
17372;SDS011;8803;48.116;11.590;2023-06-14T07:04:03;4.70;;;3.60;;
17372;SDS011;8803;48.116;11.590;2023-06-14T07:06:09;4.62;;;3.40;;
17372;SDS011;8803;48.116;11.590;2023-06-14T07:08:22;6.90;;;3.95;;
17372;SDS011;8803;48.116;11.590;2023-06-14T07:10:26;4.85;;;3.95;;
17372;SDS011;8803;48.116;11.590;2023-06-14T07:12:31;4.10;;;3.58;;
17372;SDS011;8803;48.116;11.590;2023-06-14T07:14:38;7.95;;;3.87;;
17372;SDS011;8803;48.116;11.590;2023-06-14T07:16:42;3.42;;;2.90;;
17372;SDS011;8803;48.116;11.590;2023-06-14T07:18:56;4.83;;;3.50;;
17372;SDS011;8803;48.116;11.590;2023-06-14T07:21:01;7.25;;;3.80;;
17372;SDS011;8803;48.116;11.590;2023-06-14T07:25:17;3.37;;;3.08;;
17372;SDS011;8803;48.116;11.590;2023-06-14T07:27:23;4.25;;;2.90;;
17372;SDS011;8803;48.116;11.590;2023-06-14T07:29:27;3.42;;;3.12;;
17372;SDS011;8803;48.116;11.590;2023-06-14T07:31:39;4.60;;;3.70;;
17372;SDS011;8803;48.116;11.590;2023-06-14T07:33:44;3.77;;;3.37;;
17372;SDS011;8803;48.116;11.590;2023-06-14T07:38:02;5.42;;;3.87;;
17372;SDS011;8803;48.116;11.590;2023-06-14T07:40:08;5.17;;;3.12;;
17372;SDS011;8803;48.116;11.590;2023-06-14T07:42:21;6.75;;;3.47;;
17372;SDS011;8803;48.116;11.590;2023-06-14T07:44:29;3.58;;;3.27;;
17372;SDS011;8803;48.116;11.590;2023-06-14T07:46:41;4.15;;;3.17;;
17372;SDS011;8803;48.116;11.590;2023-06-14T07:48:47;3.50;;;3.20;;
17372;SDS011;8803;48.116;11.590;2023-06-14T07:51:00;4.90;;;3.15;;
17372;SDS011;8803;48.116;11.590;2023-06-14T07:53:03;4.40;;;2.98;;
17372;SDS011;8803;48.116;11.590;2023-06-14T07:55:08;6.12;;;3.10;;
17372;SDS011;8803;48.116;11.590;2023-06-14T07:57:21;3.08;;;2.77;;
17372;SDS011;8803;48.116;11.590;2023-06-14T07:59:26;3.47;;;3.15;;
17372;SDS011;8803;48.116;11.590;2023-06-14T08:01:31;3.30;;;3.00;;
17372;SDS011;8803;48.116;11.590;2023-06-14T08:03:37;4.47;;;3.50;;
17372;SDS011;8803;48.116;11.590;2023-06-14T08:05:41;3.15;;;2.92;;
17372;SDS011;8803;48.116;11.590;2023-06-14T08:07:53;5.45;;;3.22;;
17372;SDS011;8803;48.116;11.590;2023-06-14T08:09:58;3.55;;;3.25;;
17372;SDS011;8803;48.116;11.590;2023-06-14T08:12:02;3.60;;;3.30;;
17372;SDS011;8803;48.116;11.590;2023-06-14T08:14:15;3.85;;;2.87;;
17372;SDS011;8803;48.116;11.590;2023-06-14T08:16:19;3.92;;;3.05;;
17372;SDS011;8803;48.116;11.590;2023-06-14T08:18:36;3.08;;;2.77;;
17372;SDS011;8803;48.116;11.590;2023-06-14T08:20:40;3.65;;;3.00;;
17372;SDS011;8803;48.116;11.590;2023-06-14T08:22:53;3.75;;;3.27;;
17372;SDS011;8803;48.116;11.590;2023-06-14T08:24:58;3.58;;;3.27;;
17372;SDS011;8803;48.116;11.590;2023-06-14T08:27:11;3.27;;;2.98;;
17372;SDS011;8803;48.116;11.590;2023-06-14T08:29:15;3.00;;;2.70;;
17372;SDS011;8803;48.116;11.590;2023-06-14T08:31:28;3.87;;;2.87;;
17372;SDS011;8803;48.116;11.590;2023-06-14T08:33:33;3.55;;;3.22;;
17372;SDS011;8803;48.116;11.590;2023-06-14T08:35:37;3.83;;;2.67;;
17372;SDS011;8803;48.116;11.590;2023-06-14T08:37:50;4.03;;;2.80;;
17372;SDS011;8803;48.116;11.590;2023-06-14T08:42:09;3.10;;;2.80;;
17372;SDS011;8803;48.116;11.590;2023-06-14T08:44:15;4.12;;;3.20;;
17372;SDS011;8803;48.116;11.590;2023-06-14T08:48:32;3.47;;;2.42;;
17372;SDS011;8803;48.116;11.590;2023-06-14T08:50:37;5.05;;;2.77;;
17372;SDS011;8803;48.116;11.590;2023-06-14T08:52:52;4.20;;;3.20;;
17372;SDS011;8803;48.116;11.590;2023-06-14T08:54:58;4.28;;;2.70;;
17372;SDS011;8803;48.116;11.590;2023-06-14T08:57:11;3.33;;;2.70;;
17372;SDS011;8803;48.116;11.590;2023-06-14T08:59:16;6.50;;;3.40;;
17372;SDS011;8803;48.116;11.590;2023-06-14T09:01:22;3.22;;;2.87;;
17372;SDS011;8803;48.116;11.590;2023-06-14T09:03:27;6.58;;;3.20;;
17372;SDS011;8803;48.116;11.590;2023-06-14T09:05:40;4.03;;;3.12;;
17372;SDS011;8803;48.116;11.590;2023-06-14T09:07:47;3.70;;;3.40;;
17372;SDS011;8803;48.116;11.590;2023-06-14T09:10:07;4.05;;;2.92;;
17372;SDS011;8803;48.116;11.590;2023-06-14T09:12:13;5.35;;;3.62;;
17372;SDS011;8803;48.116;11.590;2023-06-14T09:16:21;4.40;;;3.25;;
17372;SDS011;8803;48.116;11.590;2023-06-14T09:18:34;4.03;;;3.17;;
17372;SDS011;8803;48.116;11.590;2023-06-14T09:20:39;6.37;;;3.15;;
17372;SDS011;8803;48.116;11.590;2023-06-14T09:22:53;3.60;;;3.30;;
17372;SDS011;8803;48.116;11.590;2023-06-14T09:27:14;3.10;;;2.80;;
17372;SDS011;8803;48.116;11.590;2023-06-14T09:29:18;3.95;;;3.00;;
17372;SDS011;8803;48.116;11.590;2023-06-14T09:31:31;4.12;;;3.17;;
17372;SDS011;8803;48.116;11.590;2023-06-14T09:33:37;3.62;;;3.12;;
17372;SDS011;8803;48.116;11.590;2023-06-14T09:35:43;4.60;;;3.50;;
17372;SDS011;8803;48.116;11.590;2023-06-14T09:37:57;4.45;;;3.10;;
17372;SDS011;8803;48.116;11.590;2023-06-14T09:40:01;3.50;;;3.20;;
17372;SDS011;8803;48.116;11.590;2023-06-14T09:42:16;3.90;;;3.30;;
17372;SDS011;8803;48.116;11.590;2023-06-14T09:44:21;5.30;;;3.30;;
17372;SDS011;8803;48.116;11.590;2023-06-14T09:46:34;3.35;;;3.05;;
17372;SDS011;8803;48.116;11.590;2023-06-14T09:48:39;5.35;;;3.10;;
17372;SDS011;8803;48.116;11.590;2023-06-14T09:50:46;3.83;;;3.40;;
17372;SDS011;8803;48.116;11.590;2023-06-14T09:53:02;6.33;;;3.47;;
17372;SDS011;8803;48.116;11.590;2023-06-14T09:57:21;6.92;;;3.55;;
17372;SDS011;8803;48.116;11.590;2023-06-14T09:59:26;3.87;;;3.30;;
17372;SDS011;8803;48.116;11.590;2023-06-14T10:01:33;4.42;;;3.45;;
17372;SDS011;8803;48.116;11.590;2023-06-14T10:03:38;4.85;;;3.00;;
17372;SDS011;8803;48.116;11.590;2023-06-14T10:05:45;3.87;;;3.50;;
17372;SDS011;8803;48.116;11.590;2023-06-14T10:08:00;4.00;;;3.60;;
17372;SDS011;8803;48.116;11.590;2023-06-14T10:10:14;5.60;;;3.30;;
17372;SDS011;8803;48.116;11.590;2023-06-14T10:12:18;4.03;;;3.60;;
17372;SDS011;8803;48.116;11.590;2023-06-14T10:14:23;4.72;;;2.98;;
17372;SDS011;8803;48.116;11.590;2023-06-14T10:16:30;3.58;;;3.27;;
17372;SDS011;8803;48.116;11.590;2023-06-14T10:18:44;4.60;;;3.50;;
17372;SDS011;8803;48.116;11.590;2023-06-14T10:20:51;3.33;;;3.10;;
17372;SDS011;8803;48.116;11.590;2023-06-14T10:23:00;3.80;;;3.50;;
17372;SDS011;8803;48.116;11.590;2023-06-14T10:27:18;5.45;;;3.17;;
17372;SDS011;8803;48.116;11.590;2023-06-14T10:29:24;3.60;;;3.27;;
17372;SDS011;8803;48.116;11.590;2023-06-14T10:31:40;4.58;;;3.35;;
17372;SDS011;8803;48.116;11.590;2023-06-14T10:33:49;6.72;;;3.30;;
17372;SDS011;8803;48.116;11.590;2023-06-14T10:36:07;4.62;;;3.33;;
17372;SDS011;8803;48.116;11.590;2023-06-14T10:38:20;6.70;;;3.58;;
17372;SDS011;8803;48.116;11.590;2023-06-14T10:40:34;3.65;;;3.35;;
17372;SDS011;8803;48.116;11.590;2023-06-14T10:42:41;3.83;;;3.42;;
17372;SDS011;8803;48.116;11.590;2023-06-14T10:44:57;3.62;;;3.30;;
17372;SDS011;8803;48.116;11.590;2023-06-14T10:47:05;5.33;;;3.27;;
17372;SDS011;8803;48.116;11.590;2023-06-14T10:49:36;5.53;;;3.90;;
17372;SDS011;8803;48.116;11.590;2023-06-14T10:51:42;5.22;;;3.65;;
17372;SDS011;8803;48.116;11.590;2023-06-14T10:53:47;4.17;;;3.10;;
17372;SDS011;8803;48.116;11.590;2023-06-14T10:55:53;6.70;;;3.85;;
17372;SDS011;8803;48.116;11.590;2023-06-14T10:58:08;4.15;;;3.50;;
17372;SDS011;8803;48.116;11.590;2023-06-14T11:00:13;4.17;;;3.77;;
17372;SDS011;8803;48.116;11.590;2023-06-14T11:02:25;3.85;;;3.33;;
17372;SDS011;8803;48.116;11.590;2023-06-14T11:04:47;4.15;;;3.55;;
17372;SDS011;8803;48.116;11.590;2023-06-14T11:06:53;3.70;;;3.33;;
17372;SDS011;8803;48.116;11.590;2023-06-14T11:11:57;4.08;;;3.50;;
17372;SDS011;8803;48.116;11.590;2023-06-14T11:14:03;4.67;;;3.58;;
17372;SDS011;8803;48.116;11.590;2023-06-14T11:16:12;7.25;;;3.75;;
17372;SDS011;8803;48.116;11.590;2023-06-14T11:18:25;6.08;;;3.65;;
17372;SDS011;8803;48.116;11.590;2023-06-14T11:20:31;3.72;;;3.42;;
17372;SDS011;8803;48.116;11.590;2023-06-14T11:25:09;5.75;;;3.83;;
17372;SDS011;8803;48.116;11.590;2023-06-14T11:27:13;3.47;;;3.17;;
17372;SDS011;8803;48.116;11.590;2023-06-14T11:29:25;4.03;;;3.30;;
17372;SDS011;8803;48.116;11.590;2023-06-14T11:31:31;3.75;;;3.37;;
17372;SDS011;8803;48.116;11.590;2023-06-14T11:33:35;3.58;;;3.25;;
17372;SDS011;8803;48.116;11.590;2023-06-14T11:37:52;4.65;;;3.87;;
17372;SDS011;8803;48.116;11.590;2023-06-14T11:39:57;4.33;;;3.30;;
17372;SDS011;8803;48.116;11.590;2023-06-14T11:42:01;7.10;;;3.50;;
17372;SDS011;8803;48.116;11.590;2023-06-14T11:44:06;5.60;;;3.50;;
17372;SDS011;8803;48.116;11.590;2023-06-14T11:46:14;4.95;;;3.67;;
17372;SDS011;8803;48.116;11.590;2023-06-14T11:48:36;3.50;;;3.20;;
17372;SDS011;8803;48.116;11.590;2023-06-14T11:50:40;6.15;;;3.58;;
17372;SDS011;8803;48.116;11.590;2023-06-14T11:52:44;3.95;;;3.42;;
17372;SDS011;8803;48.116;11.590;2023-06-14T11:54:49;7.40;;;3.75;;
17372;SDS011;8803;48.116;11.590;2023-06-14T11:57:02;4.50;;;3.45;;
17372;SDS011;8803;48.116;11.590;2023-06-14T11:59:08;4.35;;;3.10;;
17372;SDS011;8803;48.116;11.590;2023-06-14T12:01:20;6.80;;;3.60;;
17372;SDS011;8803;48.116;11.590;2023-06-14T12:03:25;3.85;;;3.22;;
17372;SDS011;8803;48.116;11.590;2023-06-14T12:05:29;4.53;;;3.20;;
17372;SDS011;8803;48.116;11.590;2023-06-14T12:07:42;5.95;;;3.60;;
17372;SDS011;8803;48.116;11.590;2023-06-14T12:10:03;8.30;;;3.72;;
17372;SDS011;8803;48.116;11.590;2023-06-14T12:12:09;4.55;;;3.58;;
17372;SDS011;8803;48.116;11.590;2023-06-14T12:14:15;4.33;;;3.27;;
17372;SDS011;8803;48.116;11.590;2023-06-14T12:16:31;5.03;;;3.80;;
17372;SDS011;8803;48.116;11.590;2023-06-14T12:18:37;4.55;;;3.50;;
17372;SDS011;8803;48.116;11.590;2023-06-14T12:20:50;6.70;;;3.52;;
17372;SDS011;8803;48.116;11.590;2023-06-14T12:22:54;4.33;;;3.50;;
17372;SDS011;8803;48.116;11.590;2023-06-14T12:25:00;6.58;;;3.45;;
17372;SDS011;8803;48.116;11.590;2023-06-14T12:27:12;4.72;;;3.75;;
17372;SDS011;8803;48.116;11.590;2023-06-14T12:29:19;5.10;;;3.65;;
17372;SDS011;8803;48.116;11.590;2023-06-14T12:31:23;6.97;;;3.37;;
17372;SDS011;8803;48.116;11.590;2023-06-14T12:33:27;5.05;;;3.27;;
17372;SDS011;8803;48.116;11.590;2023-06-14T12:35:32;4.25;;;3.30;;
17372;SDS011;8803;48.116;11.590;2023-06-14T12:37:45;4.70;;;3.83;;
17372;SDS011;8803;48.116;11.590;2023-06-14T12:39:49;4.20;;;3.25;;
17372;SDS011;8803;48.116;11.590;2023-06-14T12:41:53;4.67;;;3.47;;
17372;SDS011;8803;48.116;11.590;2023-06-14T12:43:57;3.98;;;3.58;;
17372;SDS011;8803;48.116;11.590;2023-06-14T12:46:02;4.08;;;3.42;;
17372;SDS011;8803;48.116;11.590;2023-06-14T12:48:15;4.90;;;3.62;;
17372;SDS011;8803;48.116;11.590;2023-06-14T12:50:19;4.65;;;2.92;;
17372;SDS011;8803;48.116;11.590;2023-06-14T12:52:23;4.45;;;3.50;;
17372;SDS011;8803;48.116;11.590;2023-06-14T12:54:26;3.33;;;3.05;;
17372;SDS011;8803;48.116;11.590;2023-06-14T12:56:30;3.70;;;3.10;;
17372;SDS011;8803;48.116;11.590;2023-06-14T12:58:43;4.00;;;3.60;;
17372;SDS011;8803;48.116;11.590;2023-06-14T13:00:47;3.55;;;3.25;;
17372;SDS011;8803;48.116;11.590;2023-06-14T13:03:06;4.13;;;3.63;;
17372;SDS011;8803;48.116;11.590;2023-06-14T13:07:24;3.30;;;3.00;;
17372;SDS011;8803;48.116;11.590;2023-06-14T13:09:27;3.40;;;3.10;;
17372;SDS011;8803;48.116;11.590;2023-06-14T13:13:43;5.78;;;3.15;;
17372;SDS011;8803;48.116;11.590;2023-06-14T13:17:58;3.98;;;3.12;;
17372;SDS011;8803;48.116;11.590;2023-06-14T13:20:02;3.42;;;3.12;;
17372;SDS011;8803;48.116;11.590;2023-06-14T13:22:07;4.03;;;3.70;;
17372;SDS011;8803;48.116;11.590;2023-06-14T13:24:11;6.87;;;3.62;;
17372;SDS011;8803;48.116;11.590;2023-06-14T13:28:27;4.83;;;3.30;;
17372;SDS011;8803;48.116;11.590;2023-06-14T13:30:32;7.03;;;3.70;;
17372;SDS011;8803;48.116;11.590;2023-06-14T13:32:37;4.55;;;3.30;;
17372;SDS011;8803;48.116;11.590;2023-06-14T13:34:41;4.23;;;3.30;;
17372;SDS011;8803;48.116;11.590;2023-06-14T13:36:44;7.78;;;3.45;;
17372;SDS011;8803;48.116;11.590;2023-06-14T13:38:57;3.92;;;3.55;;
17372;SDS011;8803;48.116;11.590;2023-06-14T13:41:01;5.03;;;3.20;;